Time;durP1;ratioP1;P1;durP2;ratioP2;P2;SDS_P1;SDS_P2;PMS_P1;PMS_P2;Temp;Humidity;BMP_temperature;BMP_pressure;BME280_temperature;BME280_humidity;BME280_pressure;Samples;Min_cycle;Max_cycle;Signal;HPM_P1;HPM_P2
2023/08/14 00:02:06;;;;;;;5.40;3.30;;;;;;;25.87;35.42;101076.41;104200;1285;69185;-88
2023/08/14 00:04:32;;;;;;;3.30;2.90;;;;;;;25.86;35.51;101076.20;104402;1285;69187;-88
2023/08/14 00:06:58;;;;;;;5.60;3.30;;;;;;;25.85;35.60;101075.20;104498;1285;69188;-88
2023/08/14 00:09:23;;;;;;;4.20;3.10;;;;;;;25.84;35.69;101074.84;104527;1286;69367;-88
2023/08/14 00:11:49;;;;;;;4.10;3.10;;;;;;;25.84;35.53;101070.40;104358;1288;69217;-88
2023/08/14 00:14:18;;;;;;;6.30;3.20;;;;;;;25.84;35.81;101075.98;104515;1285;69180;-92
2023/08/14 00:16:44;;;;;;;4.80;3.60;;;;;;;25.83;35.79;101073.14;104385;1288;69072;-88
2023/08/14 00:19:09;;;;;;;5.30;3.10;;;;;;;25.82;35.70;101074.48;104578;1285;69277;-88
2023/08/14 00:21:35;;;;;;;4.70;3.20;;;;;;;25.81;35.86;101073.68;104505;1289;69177;-88
2023/08/14 00:24:02;;;;;;;4.70;3.40;;;;;;;25.81;35.75;101073.12;104324;1288;66987;-88
2023/08/14 00:26:27;;;;;;;4.40;3.10;;;;;;;25.81;35.74;101073.05;104356;1285;70319;-89
2023/08/14 00:28:53;;;;;;;4.60;3.10;;;;;;;25.80;35.80;101068.59;104513;1286;69268;-88
2023/08/14 00:31:18;;;;;;;3.70;3.00;;;;;;;25.80;35.65;101068.38;104567;1287;67774;-88
2023/08/14 00:33:44;;;;;;;6.70;3.20;;;;;;;25.79;35.87;101065.91;104379;1288;69246;-88
2023/08/14 00:36:09;;;;;;;6.10;3.00;;;;;;;25.79;36.08;101071.43;104640;1287;69273;-88
2023/08/14 00:38:35;;;;;;;4.80;3.30;;;;;;;25.79;35.94;101067.01;104734;1285;69176;-89
2023/08/14 00:41:01;;;;;;;3.90;3.10;;;;;;;25.78;36.03;101068.39;105179;1288;70638;-88
2023/08/14 00:43:26;;;;;;;6.20;3.00;;;;;;;25.78;35.88;101070.16;105109;1285;68989;-88
2023/08/14 00:45:54;;;;;;;4.40;3.20;;;;;;;25.77;35.82;101072.13;104559;1285;69275;-88
2023/08/14 00:48:20;;;;;;;3.70;3.30;;;;;;;25.77;35.93;101071.46;104635;1289;69167;-88
2023/08/14 00:50:45;;;;;;;7.60;3.50;;;;;;;25.77;36.05;101068.77;104599;1284;69293;-88
2023/08/14 00:53:15;;;;;;;6.30;3.50;;;;;;;25.77;35.99;101066.92;104618;1286;69212;-93
2023/08/14 00:55:40;;;;;;;7.40;3.30;;;;;;;25.77;36.03;101066.52;104397;1288;69789;-87
2023/08/14 00:58:06;;;;;;;4.70;3.00;;;;;;;25.76;35.86;101065.14;104394;1285;69263;-88
2023/08/14 01:00:34;;;;;;;3.90;3.00;;;;;;;25.76;36.07;101065.13;104425;1285;69332;-87
2023/08/14 01:03:01;;;;;;;3.70;2.90;;;;;;;25.75;36.05;101060.50;104627;1284;69244;-88
2023/08/14 01:05:26;;;;;;;3.60;3.20;;;;;;;25.75;36.18;101060.20;104231;1291;69093;-88
2023/08/14 01:07:52;;;;;;;6.40;3.50;;;;;;;25.74;36.09;101061.27;104177;1285;69229;-88
2023/08/14 01:10:17;;;;;;;5.90;3.30;;;;;;;25.74;36.21;101058.66;104518;1289;69276;-87
2023/08/14 01:13:06;;;;;;;6.10;3.20;;;;;;;25.74;36.29;101057.21;104570;1285;70175;-87
2023/08/14 01:15:34;;;;;;;5.60;3.40;;;;;;;25.73;36.21;101058.67;104273;1290;74279;-87
2023/08/14 01:18:01;;;;;;;4.00;3.40;;;;;;;25.72;36.20;101055.38;104394;1290;69268;-88
2023/08/14 01:20:31;;;;;;;8.70;3.20;;;;;;;25.72;36.37;101055.23;104566;1286;69231;-88
2023/08/14 01:23:33;;;;;;;4.30;3.10;;;;;;;25.72;36.19;101054.86;104251;1287;69171;-91
2023/08/14 01:28:38;;;;;;;4.70;3.30;;;;;;;25.70;36.29;101055.40;104804;1287;74329;-87
2023/08/14 01:31:04;;;;;;;3.90;3.10;;;;;;;25.70;36.22;101057.40;104735;1284;69176;-87
2023/08/14 01:33:30;;;;;;;6.20;3.30;;;;;;;25.69;36.32;101058.14;105485;1285;69204;-88
2023/08/14 01:36:08;;;;;;;6.60;3.50;;;;;;;25.71;36.29;101063.80;104467;1287;69279;-88
2023/08/14 01:38:54;;;;;;;3.80;3.20;;;;;;;25.71;36.37;101058.29;105788;1283;66956;-88
2023/08/14 01:41:25;;;;;;;3.50;3.20;;;;;;;25.70;36.44;101058.04;104495;1283;74254;-88
2023/08/14 01:46:28;;;;;;;5.40;3.30;;;;;;;25.69;36.40;101061.13;104666;1282;70312;-87
2023/08/14 01:48:55;;;;;;;5.40;3.50;;;;;;;25.70;36.28;101066.27;104570;1286;69265;-88
2023/08/14 01:51:20;;;;;;;4.60;3.20;;;;;;;25.70;36.43;101067.06;104812;1284;69180;-88
2023/08/14 01:53:46;;;;;;;5.40;3.60;;;;;;;25.69;36.51;101066.19;104657;1282;69208;-87
2023/08/14 01:56:12;;;;;;;5.20;3.40;;;;;;;25.69;36.20;101062.89;104478;1282;69266;-88
2023/08/14 01:58:37;;;;;;;8.10;3.30;;;;;;;25.69;36.43;101063.45;104534;1286;69246;-88
2023/08/14 02:01:03;;;;;;;5.40;3.60;;;;;;;25.69;36.42;101063.71;104434;1285;69218;-88
2023/08/14 02:03:28;;;;;;;4.20;3.50;;;;;;;25.68;36.29;101060.27;104820;1283;69186;-88
2023/08/14 02:05:54;;;;;;;5.20;3.60;;;;;;;25.68;36.41;101059.80;104561;1285;67285;-87
2023/08/14 02:08:19;;;;;;;8.80;3.50;;;;;;;25.68;36.32;101058.77;104764;1282;69862;-87
2023/08/14 02:13:24;;;;;;;6.10;3.40;;;;;;;25.66;36.32;101059.05;104603;1288;74529;-88
2023/08/14 02:15:51;;;;;;;4.00;3.30;;;;;;;25.65;36.56;101058.59;104562;1290;69260;-87
2023/08/14 02:18:16;;;;;;;4.70;3.50;;;;;;;25.65;36.50;101058.84;104155;1286;335003;-88
2023/08/14 02:20:46;;;;;;;4.20;3.30;;;;;;;25.65;36.57;101061.27;104571;1288;69222;-87
2023/08/14 02:23:12;;;;;;;6.60;3.50;;;;;;;25.65;36.55;101064.73;104329;1290;69141;-88
2023/08/14 02:28:14;;;;;;;4.90;3.20;;;;;;;25.64;36.45;101064.48;104802;1286;69084;-88
2023/08/14 02:30:42;;;;;;;4.20;3.50;;;;;;;25.64;36.51;101070.41;104663;1286;69202;-89
2023/08/14 02:33:08;;;;;;;5.90;3.70;;;;;;;25.63;36.53;101064.44;104361;1291;69148;-88
2023/08/14 02:35:37;;;;;;;6.80;4.00;;;;;;;25.63;36.65;101062.27;104558;1286;69231;-88
2023/08/14 02:38:04;;;;;;;4.60;3.40;;;;;;;25.62;36.71;101065.16;104733;1287;73331;-89
2023/08/14 02:40:29;;;;;;;4.60;3.30;;;;;;;25.62;36.61;101065.31;104429;1285;69132;-88
2023/08/14 02:43:00;;;;;;;5.90;3.50;;;;;;;25.62;36.47;101062.02;104473;1289;69296;-88
2023/08/14 02:45:25;;;;;;;;;;;;;;;25.61;36.52;101062.34;104705;1286;70333;-88
2023/08/14 02:47:51;;;;;;;4.50;3.60;;;;;;;25.59;36.79;101062.61;104699;1286;69204;-88
2023/08/14 02:50:16;;;;;;;4.50;3.30;;;;;;;25.59;36.50;101060.66;104697;1284;69271;-88
2023/08/14 02:52:50;;;;;;;4.80;3.50;;;;;;;25.59;36.42;101062.77;104463;1292;69381;-92
2023/08/14 02:55:16;;;;;;;5.40;3.50;;;;;;;25.59;36.47;101066.75;104464;1284;69494;-87
2023/08/14 02:57:41;;;;;;;5.60;3.60;;;;;;;25.59;36.61;101069.73;104642;1286;69297;-88
2023/08/14 03:00:08;;;;;;;4.80;3.70;;;;;;;25.59;36.52;101065.30;104704;1289;69175;-88
2023/08/14 03:02:35;;;;;;;3.80;3.40;;;;;;;25.58;36.56;101066.39;104388;1286;69254;-88
2023/08/14 03:05:01;;;;;;;4.20;3.50;;;;;;;25.59;36.67;101065.98;104475;1292;69127;-89
2023/08/14 03:07:26;;;;;;;5.80;3.40;;;;;;;25.59;36.79;101066.29;104402;1286;69238;-88
2023/08/14 03:09:53;;;;;;;5.60;3.70;;;;;;;25.58;36.62;101060.41;104416;1290;69195;-88
2023/08/14 03:12:18;;;;;;;5.30;3.50;;;;;;;25.59;36.50;101062.16;104505;1291;69211;-88
2023/08/14 03:14:44;;;;;;;4.20;3.30;;;;;;;25.58;36.74;101064.42;104429;1289;69267;-88
2023/08/14 03:17:09;;;;;;;8.10;3.80;;;;;;;25.58;36.60;101060.98;104569;1289;69176;-88
2023/08/14 03:19:43;;;;;;;4.10;3.50;;;;;;;25.58;36.61;101067.88;104463;1289;69164;-93
2023/08/14 03:22:09;;;;;;;6.50;3.50;;;;;;;25.57;36.53;101068.41;104349;1285;69263;-88
2023/08/14 03:24:34;;;;;;;4.80;3.50;;;;;;;25.58;36.56;101066.30;104557;1285;69181;-88
2023/08/14 03:27:00;;;;;;;7.20;3.50;;;;;;;25.58;36.70;101070.42;104354;1285;69745;-88
2023/08/14 03:29:26;;;;;;;3.60;3.30;;;;;;;25.57;36.55;101070.05;104306;1285;69293;-88
2023/08/14 03:31:51;;;;;;;5.00;3.80;;;;;;;25.56;36.71;101071.55;104444;1290;69712;-88
2023/08/14 03:34:17;;;;;;;3.90;3.50;;;;;;;25.56;36.62;101072.39;104289;1287;73802;-88
2023/08/14 03:36:45;;;;;;;6.40;3.40;;;;;;;25.57;36.65;101072.73;104513;1288;69196;-88
2023/08/14 03:39:10;;;;;;;6.40;3.90;;;;;;;25.56;36.81;101071.81;104467;1288;69193;-88
2023/08/14 03:41:36;;;;;;;5.70;3.70;;;;;;;25.56;36.68;101070.95;104486;1286;69299;-88
2023/08/14 03:44:02;;;;;;;4.90;3.40;;;;;;;25.56;36.72;101071.46;104498;1288;69205;-88
2023/08/14 03:49:08;;;;;;;5.70;3.50;;;;;;;25.55;36.69;101075.90;104551;1289;69251;-88
2023/08/14 03:51:33;;;;;;;5.40;4.00;;;;;;;25.55;36.58;101074.61;104558;1285;69807;-87
2023/08/14 03:53:59;;;;;;;5.20;3.80;;;;;;;25.55;36.74;101079.70;104561;1288;69249;-88
2023/08/14 03:56:24;;;;;;;4.90;3.60;;;;;;;25.55;36.63;101078.69;104661;1285;69263;-88
2023/08/14 03:58:50;;;;;;;6.30;3.40;;;;;;;25.55;36.64;101083.52;104720;1289;69986;-88
2023/08/14 04:01:15;;;;;;;7.20;4.10;;;;;;;25.55;36.80;101086.10;104713;1285;69284;-87
2023/08/14 04:03:41;;;;;;;7.30;3.80;;;;;;;25.54;36.89;101084.61;104280;1286;69615;-87
2023/08/14 04:06:06;;;;;;;5.80;3.70;;;;;;;25.55;36.79;101088.05;104328;1288;69278;-88
2023/08/14 04:08:32;;;;;;;6.40;3.60;;;;;;;25.55;36.80;101088.63;104393;1289;68938;-88
2023/08/14 04:10:57;;;;;;;10.90;4.00;;;;;;;25.55;36.76;101091.88;104637;1290;69226;-88
2023/08/14 04:13:26;;;;;;;5.20;3.80;;;;;;;25.54;36.74;101090.70;104530;1285;69271;-88
2023/08/14 04:15:59;;;;;;;4.90;3.50;;;;;;;25.54;36.73;101092.35;104193;1285;69195;-88
2023/08/14 04:18:28;;;;;;;5.70;3.60;;;;;;;25.54;36.79;101095.29;104507;1285;73690;-88
2023/08/14 04:20:53;;;;;;;5.30;3.70;;;;;;;25.54;36.76;101096.77;104487;1289;69197;-88
2023/08/14 04:23:19;;;;;;;7.10;3.80;;;;;;;25.54;36.98;101100.52;104388;1290;70434;-88
2023/08/14 04:25:45;;;;;;;7.40;3.80;;;;;;;25.54;37.00;101101.67;104520;1285;69550;-87
2023/08/14 04:28:10;;;;;;;5.50;3.90;;;;;;;25.54;37.04;101101.67;104432;1286;69347;-87
2023/08/14 04:30:36;;;;;;;8.00;4.10;;;;;;;25.53;36.95;101105.02;104396;1286;69305;-87
2023/08/14 04:33:01;;;;;;;7.60;3.80;;;;;;;25.54;36.99;101110.90;103998;1287;69288;-87
2023/08/14 04:35:27;;;;;;;4.60;3.80;;;;;;;25.53;37.15;101112.66;105132;1291;69340;-88
2023/08/14 04:37:52;;;;;;;3.60;3.30;;;;;;;25.54;36.94;101112.75;104488;1286;69241;-87
2023/08/14 04:40:20;;;;;;;6.70;3.90;;;;;;;25.54;37.18;101117.28;104519;1285;69230;-92
2023/08/14 04:42:46;;;;;;;6.70;4.00;;;;;;;25.53;37.11;101118.06;104382;1287;69272;-88
2023/08/14 04:45:11;;;;;;;5.00;3.60;;;;;;;25.53;37.04;101121.61;104335;1291;69315;-87
2023/08/14 04:47:37;;;;;;;4.80;3.80;;;;;;;25.54;36.98;101120.48;104438;1290;69275;-88
2023/08/14 04:50:03;;;;;;;6.10;3.70;;;;;;;25.53;37.07;101120.17;104583;1289;69303;-88
2023/08/14 04:52:29;;;;;;;4.20;3.40;;;;;;;25.53;37.16;101123.02;104571;1286;69149;-87
2023/08/14 04:54:54;;;;;;;7.60;3.60;;;;;;;25.53;37.01;101129.40;104464;1289;69207;-87
2023/08/14 04:57:20;;;;;;;6.20;3.50;;;;;;;25.54;37.13;101132.84;104618;1286;67364;-88
2023/08/14 04:59:45;;;;;;;5.10;3.90;;;;;;;25.54;37.02;101133.56;104547;1291;69335;-88
2023/08/14 05:02:11;;;;;;;6.10;3.50;;;;;;;25.54;37.16;101135.42;105440;1285;69225;-88
2023/08/14 05:04:36;;;;;;;5.70;3.50;;;;;;;25.54;37.27;101135.58;104852;1285;69306;-88
2023/08/14 05:07:02;;;;;;;4.70;3.90;;;;;;;25.54;36.94;101135.73;104197;1289;69158;-87
2023/08/14 05:09:27;;;;;;;5.40;3.40;;;;;;;25.54;37.32;101136.60;105673;1285;69314;-88
2023/08/14 05:11:53;;;;;;;5.40;3.60;;;;;;;25.54;37.02;101138.30;106221;1291;69104;-88
2023/08/14 05:14:19;;;;;;;4.50;3.80;;;;;;;25.55;37.15;101146.90;105857;1286;69270;-88
2023/08/14 05:16:47;;;;;;;4.20;3.60;;;;;;;25.56;37.19;101154.67;104739;1286;69363;-88
2023/08/14 05:19:22;;;;;;;4.60;3.60;;;;;;;25.56;37.18;101150.60;104647;1286;73494;-93
2023/08/14 05:21:48;;;;;;;5.70;3.80;;;;;;;25.57;37.06;101151.93;104509;1286;66886;-88
2023/08/14 05:24:14;;;;;;;4.30;3.80;;;;;;;25.57;36.85;101155.39;104698;1286;69190;-88
2023/08/14 05:26:40;;;;;;;10.80;4.10;;;;;;;25.58;36.85;101156.16;104695;1289;69612;-88
2023/08/14 05:29:06;;;;;;;4.50;3.40;;;;;;;25.57;36.93;101156.36;104728;1289;69243;-88
2023/08/14 05:31:31;;;;;;;3.80;3.40;;;;;;;25.58;37.11;101156.67;104622;1286;69266;-89
2023/08/14 05:33:57;;;;;;;5.70;3.60;;;;;;;25.58;36.88;101159.45;104486;1286;69256;-88
2023/08/14 05:36:22;;;;;;;4.50;3.30;;;;;;;25.59;36.68;101161.51;104709;1286;69704;-88
2023/08/14 05:38:48;;;;;;;5.70;3.80;;;;;;;25.59;36.90;101163.41;104596;1288;69179;-88
2023/08/14 05:41:13;;;;;;;4.10;3.60;;;;;;;25.59;37.09;101162.85;104560;1291;69750;-88
2023/08/14 05:43:39;;;;;;;4.80;3.50;;;;;;;25.59;36.94;101162.59;104773;1287;69360;-89
2023/08/14 05:46:12;;;;;;;5.10;3.60;;;;;;;25.60;36.84;101165.77;105037;1285;69178;-92
2023/08/14 05:48:38;;;;;;;4.30;3.40;;;;;;;25.60;36.80;101159.29;106509;1288;66689;-88
2023/08/14 05:51:03;;;;;;;4.90;3.70;;;;;;;25.60;36.84;101156.34;106596;1285;69143;-89
2023/08/14 05:53:29;;;;;;;5.10;3.60;;;;;;;25.62;36.86;101157.98;106359;1286;69313;-88
2023/08/14 05:55:54;;;;;;;5.10;3.50;;;;;;;25.63;36.84;101157.61;104953;1290;69193;-88
2023/08/14 05:58:20;;;;;;;4.90;3.20;;;;;;;25.63;36.90;101158.95;104669;1285;69117;-88
2023/08/14 06:00:45;;;;;;;6.00;3.50;;;;;;;25.64;36.87;101161.46;104440;1289;69205;-88
2023/08/14 06:03:14;;;;;;;6.00;3.50;;;;;;;25.64;36.76;101166.15;104531;1291;69283;-88
2023/08/14 06:05:40;;;;;;;5.60;3.40;;;;;;;25.65;36.51;101169.02;104518;1288;69256;-88
2023/08/14 06:08:06;;;;;;;5.40;3.60;;;;;;;25.66;36.71;101169.73;104626;1287;69285;-88
2023/08/14 06:10:32;;;;;;;4.40;3.30;;;;;;;25.65;36.80;101171.08;104675;1285;69196;-88
2023/08/14 06:13:08;;;;;;;5.30;3.70;;;;;;;25.65;36.73;101173.36;104575;1285;69314;-93
2023/08/14 06:15:33;;;;;;;6.10;3.50;;;;;;;25.66;36.87;101169.27;104569;1288;69148;-88
2023/08/14 06:17:59;;;;;;;4.70;3.30;;;;;;;25.66;36.55;101173.75;104645;1288;67487;-88
2023/08/14 06:20:24;;;;;;;5.30;3.40;;;;;;;25.67;36.69;101175.91;104574;1288;69208;-88
2023/08/14 06:22:50;;;;;;;4.10;3.50;;;;;;;25.68;36.74;101172.36;104646;1285;69253;-88
2023/08/14 06:25:16;;;;;;;5.40;3.30;;;;;;;25.68;36.54;101172.10;104689;1285;69225;-88
2023/08/14 06:27:42;;;;;;;4.40;3.40;;;;;;;25.69;36.58;101175.13;104260;1288;69270;-87
2023/08/14 06:30:11;;;;;;;4.60;3.70;;;;;;;25.69;36.43;101173.94;104489;1286;69231;-88
2023/08/14 06:32:36;;;;;;;3.80;3.40;;;;;;;25.70;36.33;101174.86;104297;1285;69281;-88
2023/08/14 06:35:03;;;;;;;5.40;3.50;;;;;;;25.70;36.64;101179.29;104633;1289;69208;-88
2023/08/14 06:37:28;;;;;;;4.80;3.50;;;;;;;25.71;36.55;101177.48;104606;1286;69324;-89
2023/08/14 06:40:03;;;;;;;6.60;3.80;;;;;;;25.72;36.36;101177.38;104560;1289;69253;-92
2023/08/14 06:42:29;;;;;;;4.30;3.30;;;;;;;25.73;36.66;101180.00;104347;1291;69249;-88
2023/08/14 06:44:55;;;;;;;3.80;3.40;;;;;;;25.74;36.38;101178.14;104489;1287;69285;-88
2023/08/14 06:47:21;;;;;;;4.90;3.50;;;;;;;25.74;36.49;101181.33;105725;1285;69181;-89
2023/08/14 06:49:47;;;;;;;5.60;3.60;;;;;;;25.75;36.49;101183.95;104619;1291;69163;-88
2023/08/14 06:52:13;;;;;;;4.80;3.40;;;;;;;25.76;36.34;101189.56;104544;1285;69421;-88
2023/08/14 06:54:39;;;;;;;3.90;3.40;;;;;;;25.76;36.38;101193.73;104223;1285;69311;-88
2023/08/14 06:57:05;;;;;;;4.60;3.20;;;;;;;25.77;36.45;101199.07;104588;1287;69284;-88
2023/08/14 06:59:30;;;;;;;4.90;3.60;;;;;;;25.78;36.47;101196.34;104458;1286;69275;-88
2023/08/14 07:01:57;;;;;;;4.80;3.50;;;;;;;25.78;36.30;101197.31;104426;1289;69371;-88
2023/08/14 07:04:22;;;;;;;3.90;3.20;;;;;;;25.79;36.18;101200.25;104524;1285;69210;-89
2023/08/14 07:07:05;;;;;;;4.40;3.60;;;;;;;25.80;36.35;101199.26;104530;1284;69234;-93
2023/08/14 07:09:31;;;;;;;4.80;3.50;;;;;;;25.79;36.29;101201.79;104474;1285;73508;-88
2023/08/14 07:11:56;;;;;;;3.80;3.50;;;;;;;25.81;36.32;101203.79;104679;1285;69277;-88
2023/08/14 07:14:22;;;;;;;4.20;3.80;;;;;;;25.81;36.43;101200.13;104737;1288;69239;-88
2023/08/14 07:16:48;;;;;;;5.20;3.80;;;;;;;25.82;36.44;101203.31;104740;1285;69245;-88
2023/08/14 07:19:14;;;;;;;4.60;3.80;;;;;;;25.83;36.25;101199.55;104756;1285;69187;-88
2023/08/14 07:21:56;;;;;;;5.40;3.80;;;;;;;25.84;36.16;101198.55;104625;1288;69195;-90
2023/08/14 07:24:21;;;;;;;5.50;3.60;;;;;;;25.84;36.34;101194.59;104471;1288;69200;-88
2023/08/14 07:26:47;;;;;;;3.90;3.50;;;;;;;25.84;36.38;101201.34;104509;1285;69195;-88
2023/08/14 07:29:13;;;;;;;7.70;3.60;;;;;;;25.85;36.10;101199.73;104677;1286;69710;-88
2023/08/14 07:31:38;;;;;;;5.50;3.80;;;;;;;25.87;36.22;101203.13;104628;1285;69180;-88
2023/08/14 07:34:04;;;;;;;3.90;3.50;;;;;;;25.87;36.05;101199.66;104573;1285;69676;-88
2023/08/14 07:36:29;;;;;;;6.60;3.60;;;;;;;25.88;36.03;101196.56;104337;1286;69366;-88
2023/08/14 07:38:55;;;;;;;3.60;3.30;;;;;;;25.90;36.02;101197.72;104580;1285;69259;-88
2023/08/14 07:41:20;;;;;;;6.10;3.70;;;;;;;25.91;35.73;101197.27;104636;1286;67442;-88
2023/08/14 07:43:46;;;;;;;4.00;3.50;;;;;;;25.91;36.06;101192.77;104584;1289;69309;-88
2023/08/14 07:46:11;;;;;;;4.40;3.80;;;;;;;25.92;36.04;101191.02;104745;1285;69229;-88
2023/08/14 07:48:45;;;;;;;4.90;3.60;;;;;;;25.92;35.84;101191.10;104500;1285;69262;-92
2023/08/14 07:51:10;;;;;;;3.70;3.10;;;;;;;25.93;35.85;101192.34;104805;1284;73634;-88
2023/08/14 07:53:36;;;;;;;8.60;3.50;;;;;;;25.95;36.00;101191.34;105198;1292;67373;-88
2023/08/14 07:56:01;;;;;;;5.10;3.70;;;;;;;25.95;36.04;101188.45;105460;1284;69199;-88
2023/08/14 07:58:27;;;;;;;5.20;3.50;;;;;;;25.97;36.00;101184.31;104874;1289;69291;-88
2023/08/14 08:00:52;;;;;;;3.80;3.30;;;;;;;25.98;35.76;101188.23;104723;1284;69304;-89
2023/08/14 08:03:18;;;;;;;4.40;3.40;;;;;;;25.98;36.05;101187.20;104348;1286;69210;-88
2023/08/14 08:05:44;;;;;;;3.80;3.40;;;;;;;25.99;35.81;101185.27;104711;1288;69280;-88
2023/08/14 08:08:09;;;;;;;4.90;3.90;;;;;;;25.99;35.93;101182.06;104516;1285;69294;-88
2023/08/14 08:10:36;;;;;;;3.90;3.50;;;;;;;25.99;35.81;101184.80;104700;1285;69212;-88
2023/08/14 08:13:02;;;;;;;4.60;3.60;;;;;;;26.00;35.92;101180.67;104660;1285;69307;-89
2023/08/14 08:18:08;;;;;;;;;;;;;;;26.01;35.69;101173.59;104646;1289;69044;-88
2023/08/14 08:20:34;;;;;;;4.10;3.50;;;;;;;26.00;35.81;101177.54;104691;1288;69296;-88
2023/08/14 08:23:00;;;;;;;3.80;3.40;;;;;;;26.01;35.82;101171.59;104655;1288;69253;-88
2023/08/14 08:25:25;;;;;;;4.40;3.40;;;;;;;26.01;35.79;101177.73;105219;1286;69351;-88
2023/08/14 08:27:51;;;;;;;4.50;3.10;;;;;;;26.03;35.78;101176.92;104978;1286;69236;-88
2023/08/14 08:30:16;;;;;;;3.70;3.30;;;;;;;26.03;35.87;101176.82;104261;1286;69321;-88
2023/08/14 08:32:42;;;;;;;4.30;3.30;;;;;;;26.05;35.89;101172.16;104232;1294;69363;-87
2023/08/14 08:35:08;;;;;;;4.00;3.60;;;;;;;26.05;35.66;101171.23;104588;1288;69265;-88
2023/08/14 08:37:34;;;;;;;3.90;3.30;;;;;;;26.05;35.62;101174.52;104855;1289;69179;-88
2023/08/14 08:39:59;;;;;;;3.50;3.20;;;;;;;26.07;35.72;101170.08;104553;1288;69311;-88
2023/08/14 08:45:00;;;;;;;7.20;3.40;;;;;;;26.08;35.62;101173.84;104753;1285;72051;-88
2023/08/14 08:47:26;;;;;;;3.40;3.10;;;;;;;26.09;35.66;101171.67;104477;1288;69134;-87
2023/08/14 08:49:51;;;;;;;3.70;3.20;;;;;;;26.09;35.19;101168.56;104592;1285;69281;-87
2023/08/14 08:52:17;;;;;;;3.70;3.30;;;;;;;26.10;35.36;101164.75;104578;1285;69224;-88
2023/08/14 08:54:42;;;;;;;4.60;3.30;;;;;;;26.11;35.46;101165.91;104697;1285;69266;-87
2023/08/14 08:57:08;;;;;;;3.60;3.30;;;;;;;26.11;35.41;101168.71;104325;1285;69274;-87
2023/08/14 08:59:33;;;;;;;3.60;3.20;;;;;;;26.12;35.52;101165.24;104477;1288;69347;-87
2023/08/14 09:01:59;;;;;;;3.60;3.10;;;;;;;26.13;35.38;101160.40;104800;1288;69261;-88
2023/08/14 09:04:24;;;;;;;4.20;3.70;;;;;;;26.13;35.24;101166.89;104700;1288;69300;-87
2023/08/14 09:06:50;;;;;;;3.90;3.30;;;;;;;26.13;35.27;101160.70;104554;1287;69263;-87
2023/08/14 09:11:49;;;;;;;6.10;3.40;;;;;;;26.14;35.39;101162.66;104776;1281;69221;-87
2023/08/14 09:14:17;;;;;;;3.60;3.30;;;;;;;26.14;35.27;101160.13;104834;1288;69325;-87
2023/08/14 09:16:47;;;;;;;4.00;3.40;;;;;;;26.15;35.31;101154.09;104443;1285;73390;-87
2023/08/14 09:19:14;;;;;;;4.90;3.20;;;;;;;26.16;35.19;101148.92;104662;1285;69139;-87
2023/08/14 09:21:43;;;;;;;5.50;3.10;;;;;;;26.16;35.06;101147.94;104716;1284;71137;-88
2023/08/14 09:24:09;;;;;;;3.90;3.20;;;;;;;26.16;35.18;101147.52;104387;1283;69321;-87
2023/08/14 09:26:53;;;;;;;3.40;3.10;;;;;;;26.16;35.20;101145.73;104370;1288;67454;-87
2023/08/14 09:29:19;;;;;;;5.00;3.50;;;;;;;26.16;34.99;101136.54;104532;1285;69283;-87
2023/08/14 09:31:45;;;;;;;3.90;3.20;;;;;;;26.17;35.08;101133.34;104656;1286;69280;-88
2023/08/14 09:34:18;;;;;;;3.50;3.20;;;;;;;26.17;35.25;101139.48;104545;1285;67267;-88
2023/08/14 09:36:43;;;;;;;3.30;2.90;;;;;;;26.18;35.20;101135.29;104545;1285;69188;-88
2023/08/14 09:41:49;;;;;;;4.00;3.30;;;;;;;26.18;34.89;101133.37;104798;1285;73192;-88
2023/08/14 09:44:18;;;;;;;4.40;3.20;;;;;;;26.19;34.97;101128.57;104699;1284;68156;-88
2023/08/14 09:46:44;;;;;;;3.30;3.00;;;;;;;26.19;34.98;101126.97;104847;1288;69161;-88
2023/08/14 09:49:09;;;;;;;3.50;2.90;;;;;;;26.20;35.03;101119.80;104582;1284;69372;-88
2023/08/14 09:51:35;;;;;;;4.20;3.10;;;;;;;26.20;34.88;101116.59;104764;1285;69278;-88
2023/08/14 09:54:02;;;;;;;3.10;2.80;;;;;;;26.20;34.79;101114.73;104514;1288;69242;-88
2023/08/14 09:56:46;;;;;;;3.60;3.30;;;;;;;26.20;34.79;101115.98;104262;1285;69056;-88
2023/08/14 09:59:12;;;;;;;4.30;3.40;;;;;;;26.21;34.87;101118.28;104620;1286;69243;-87
2023/08/14 10:01:38;;;;;;;3.70;3.40;;;;;;;26.22;34.94;101113.89;104650;1289;69148;-88
2023/08/14 10:04:04;;;;;;;3.60;3.10;;;;;;;26.22;34.65;101112.39;104433;1285;69291;-88
2023/08/14 10:06:29;;;;;;;5.50;3.10;;;;;;;26.21;34.68;101111.33;104501;1289;69205;-88
2023/08/14 10:08:56;;;;;;;5.00;3.10;;;;;;;26.22;34.53;101112.84;104365;1285;69135;-88
2023/08/14 10:11:24;;;;;;;4.00;3.00;;;;;;;26.23;34.48;101107.79;104747;1285;69158;-88
2023/08/14 10:13:56;;;;;;;4.00;2.90;;;;;;;26.23;34.69;101096.59;104737;1288;69135;-88
2023/08/14 10:16:24;;;;;;;4.70;3.50;;;;;;;26.24;34.64;101091.98;104708;1289;74634;-88
2023/08/14 10:18:53;;;;;;;3.30;3.00;;;;;;;26.24;34.72;101084.96;104627;1286;69112;-88
2023/08/14 10:21:19;;;;;;;5.70;3.10;;;;;;;26.25;34.69;101084.18;104657;1285;69165;-89
2023/08/14 10:23:44;;;;;;;5.10;3.10;;;;;;;26.26;34.71;101084.31;104298;1292;69369;-87
2023/08/14 10:26:10;;;;;;;3.20;2.90;;;;;;;26.27;34.58;101079.00;104488;1286;69145;-87
2023/08/14 10:28:35;;;;;;;3.30;3.00;;;;;;;26.27;34.64;101087.77;104533;1290;69590;-88
2023/08/14 10:31:01;;;;;;;4.80;3.20;;;;;;;26.28;34.53;101083.90;104411;1286;69287;-88
2023/08/14 10:33:27;;;;;;;5.10;3.00;;;;;;;26.28;34.46;101079.30;104344;1291;69463;-88
2023/08/14 10:38:49;;;;;;;3.20;2.90;;;;;;;26.29;34.49;101075.05;101478;1286;74087;-88
2023/08/14 10:41:18;;;;;;;3.80;3.40;;;;;;;26.30;34.51;101080.11;104370;1285;72475;-88
2023/08/14 10:43:53;;;;;;;3.10;2.80;;;;;;;26.30;34.51;101073.49;104584;1286;69217;-88
2023/08/14 10:46:19;;;;;;;4.00;3.20;;;;;;;26.30;34.53;101070.98;104575;1290;69199;-88
2023/08/14 10:48:48;;;;;;;4.30;3.10;;;;;;;26.31;34.51;101064.10;104452;1287;69266;-88
2023/08/14 10:51:15;;;;;;;3.20;2.80;;;;;;;26.31;34.36;101059.72;104701;1285;73694;-88
2023/08/14 10:53:41;;;;;;;4.30;3.10;;;;;;;26.32;34.25;101058.41;104409;1285;69110;-88
2023/08/14 10:56:07;;;;;;;4.60;3.00;;;;;;;26.32;34.43;101070.52;104536;1290;68160;-88
2023/08/14 10:58:35;;;;;;;4.00;3.20;;;;;;;26.33;34.34;101073.01;104515;1285;69320;-88
2023/08/14 11:01:10;;;;;;;6.40;3.30;;;;;;;26.33;34.18;101073.20;105117;1288;69068;-88
2023/08/14 11:04:03;;;;;;;3.40;2.90;;;;;;;26.34;34.27;101067.27;105053;1285;73548;-88
2023/08/14 11:06:45;;;;;;;3.60;3.10;;;;;;;26.34;34.47;101062.92;104612;1285;69262;-87
2023/08/14 11:09:10;;;;;;;3.10;2.70;;;;;;;26.35;34.38;101061.73;104511;1285;69044;-88
2023/08/14 11:11:36;;;;;;;3.50;3.10;;;;;;;26.35;34.22;101059.81;104444;1285;69255;-88
2023/08/14 11:14:02;;;;;;;3.20;2.90;;;;;;;26.36;34.30;101055.92;104626;1286;69375;-88
2023/08/14 11:16:27;;;;;;;3.30;2.90;;;;;;;26.37;34.16;101054.16;104415;1285;69190;-88
2023/08/14 11:18:53;;;;;;;5.00;3.20;;;;;;;26.38;34.26;101046.16;104586;1285;69555;-88
2023/08/14 11:21:18;;;;;;;3.00;2.80;;;;;;;26.38;34.11;101043.46;104468;1286;68029;-88
2023/08/14 11:26:20;;;;;;;4.20;2.90;;;;;;;26.39;34.14;101038.77;104690;1288;72844;-88
2023/08/14 11:28:46;;;;;;;2.70;2.50;;;;;;;26.39;34.24;101040.36;104520;1288;69261;-88
2023/08/14 11:31:12;;;;;;;4.10;3.10;;;;;;;26.39;34.23;101040.92;104768;1285;69215;-88
2023/08/14 11:33:38;;;;;;;3.30;3.00;;;;;;;26.39;34.24;101032.98;104732;1285;69367;-88
2023/08/14 11:36:07;;;;;;;3.30;2.80;;;;;;;26.40;34.29;101027.51;104675;1285;69339;-88
2023/08/14 11:38:33;;;;;;;4.10;3.20;;;;;;;26.40;34.13;101032.77;104296;1286;69752;-88
2023/08/14 11:41:01;;;;;;;3.30;3.00;;;;;;;26.40;34.09;101028.84;104645;1289;70343;-88
2023/08/14 11:43:27;;;;;;;4.80;3.00;;;;;;;26.40;34.02;101024.60;104543;1289;69259;-88
2023/08/14 11:45:53;;;;;;;4.70;3.00;;;;;;;26.40;34.16;101018.94;104548;1290;69262;-88